Wetterdaten: Woche 21.06.10 - 27.06.10 (KW25)
Datum Zeit Temperatur Luftfeuchte Luftdruck Niederschlag Windrichtung Sonnenschein Solar Wind
21.06.2010 00:00 9,6 C 94 % 1014,9 hPa 0,0 l/m N 0,00 h 0 W/m 0,3 km/h (0 Bft)
21.06.2010 01:00 9,4 C 94 % 1015,0 hPa 0,0 l/m N 0,00 h 0 W/m 0,9 km/h (0 Bft)
21.06.2010 02:00 9,2 C 95 % 1014,8 hPa 0,0 l/m N 0,00 h 0 W/m 0,0 km/h (0 Bft)
21.06.2010 03:00 9,1 C 95 % 1014,9 hPa 0,0 l/m N 0,00 h 0 W/m 0,5 km/h (0 Bft)
21.06.2010 04:00 8,9 C 95 % 1015,0 hPa 0,0 l/m N 0,00 h 0 W/m 1,7 km/h (1 Bft)
21.06.2010 05:00 8,8 C 95 % 1015,3 hPa 0,0 l/m N 0,00 h 5 W/m 2,8 km/h (1 Bft)
21.06.2010 06:00 8,7 C 95 % 1015,7 hPa 0,0 l/m N-NW 0,00 h 15 W/m 3,2 km/h (1 Bft)
21.06.2010 07:00 8,9 C 95 % 1016,1 hPa 0,0 l/m N-NO 0,00 h 52 W/m 7,2 km/h (2 Bft)
21.06.2010 08:00 9,6 C 92 % 1016,4 hPa 0,0 l/m N-NO 0,00 h 116 W/m 7,0 km/h (2 Bft)
21.06.2010 09:00 10,3 C 88 % 1016,6 hPa 0,0 l/m O-NO 0,00 h 147 W/m 9,7 km/h (2 Bft)
21.06.2010 10:00 10,8 C 85 % 1016,8 hPa 0,0 l/m O-NO 0,00 h 177 W/m 9,4 km/h (2 Bft)
21.06.2010 11:00 11,4 C 83 % 1017,0 hPa 0,0 l/m O-NO 0,00 h 320 W/m 10,3 km/h (2 Bft)
21.06.2010 12:00 12,6 C 79 % 1017,0 hPa 0,0 l/m O-SO 0,42 h 488 W/m 12,9 km/h (3 Bft)
21.06.2010 13:00 13,8 C 67 % 1016,9 hPa 0,0 l/m NO 0,17 h 328 W/m 14,6 km/h (3 Bft)
21.06.2010 14:00 13,7 C 63 % 1016,8 hPa 0,0 l/m O-NO 0,25 h 466 W/m 12,6 km/h (3 Bft)
21.06.2010 15:00 13,5 C 67 % 1016,9 hPa 0,2 l/m O-SO 0,08 h 217 W/m 16,2 km/h (3 Bft)
21.06.2010 16:00 13,0 C 69 % 1017,3 hPa 0,0 l/m SO 0,00 h 232 W/m 8,6 km/h (2 Bft)
21.06.2010 17:00 13,8 C 65 % 1017,4 hPa 0,0 l/m S-SW 0,00 h 264 W/m 5,2 km/h (1 Bft)
21.06.2010 18:00 13,9 C 67 % 1017,6 hPa 0,0 l/m N-NO 0,00 h 152 W/m 5,9 km/h (2 Bft)
21.06.2010 19:00 12,8 C 73 % 1018,3 hPa 0,0 l/m SO 0,00 h 29 W/m 10,3 km/h (2 Bft)
21.06.2010 20:00 11,0 C 87 % 1018,8 hPa 1,2 l/m S-SO 0,00 h 7 W/m 3,7 km/h (1 Bft)
21.06.2010 21:00 10,4 C 89 % 1019,0 hPa 0,0 l/m N 0,00 h 5 W/m 0,9 km/h (0 Bft)
21.06.2010 22:00 10,2 C 92 % 1019,4 hPa 0,2 l/m N 0,00 h 0 W/m 0,1 km/h (0 Bft)
21.06.2010 23:00 9,9 C 93 % 1019,4 hPa 0,0 l/m N 0,00 h 0 W/m 1,1 km/h (0 Bft)
22.06.2010 00:00 9,7 C 93 % 1019,5 hPa 0,0 l/m NW 0,00 h 0 W/m 3,6 km/h (1 Bft)
22.06.2010 01:00 9,7 C 93 % 1019,4 hPa 0,0 l/m NW 0,00 h 0 W/m 5,6 km/h (1 Bft)
22.06.2010 02:00 9,6 C 93 % 1019,2 hPa 0,0 l/m N 0,00 h 0 W/m 4,5 km/h (1 Bft)
22.06.2010 03:00 9,5 C 93 % 1019,3 hPa 0,0 l/m N 0,00 h 0 W/m 2,8 km/h (1 Bft)
22.06.2010 04:00 9,0 C 93 % 1019,3 hPa 0,0 l/m N 0,00 h 0 W/m 5,2 km/h (1 Bft)
22.06.2010 05:00 8,4 C 93 % 1019,4 hPa 0,0 l/m N 0,00 h 11 W/m 6,0 km/h (2 Bft)
22.06.2010 06:00 8,1 C 94 % 1019,8 hPa 0,0 l/m N-NW 0,00 h 51 W/m 5,7 km/h (1 Bft)
22.06.2010 07:00 8,9 C 96 % 1020,1 hPa 0,0 l/m N-NW 0,00 h 129 W/m 6,4 km/h (2 Bft)
22.06.2010 08:00 10,7 C 91 % 1020,3 hPa 0,0 l/m NO 0,33 h 268 W/m 9,7 km/h (2 Bft)
22.06.2010 09:00 13,1 C 81 % 1020,3 hPa 0,0 l/m O 1,00 h 567 W/m 11,4 km/h (2 Bft)
22.06.2010 10:00 14,5 C 72 % 1020,4 hPa 0,0 l/m O 0,50 h 520 W/m 14,2 km/h (3 Bft)
22.06.2010 11:00 15,0 C 67 % 1020,4 hPa 0,0 l/m NO 0,33 h 485 W/m 12,3 km/h (3 Bft)
22.06.2010 12:00 15,0 C 66 % 1020,5 hPa 0,0 l/m O 0,00 h 259 W/m 13,2 km/h (3 Bft)
22.06.2010 13:00 15,4 C 63 % 1020,5 hPa 0,0 l/m O-SO 0,25 h 456 W/m 13,8 km/h (3 Bft)
22.06.2010 14:00 17,0 C 54 % 1020,1 hPa 0,0 l/m NO 0,67 h 596 W/m 14,6 km/h (3 Bft)
22.06.2010 15:00 15,7 C 65 % 1020,3 hPa 0,0 l/m NO 0,00 h 105 W/m 15,8 km/h (3 Bft)
22.06.2010 16:00 14,9 C 68 % 1020,7 hPa 0,0 l/m O 0,00 h 117 W/m 9,4 km/h (2 Bft)
22.06.2010 17:00 15,7 C 60 % 1020,8 hPa 0,0 l/m O 0,00 h 281 W/m 10,2 km/h (2 Bft)
22.06.2010 18:00 16,0 C 55 % 1020,9 hPa 0,0 l/m O-SO 0,00 h 192 W/m 8,7 km/h (2 Bft)
22.06.2010 19:00 15,6 C 59 % 1021,0 hPa 0,0 l/m O-SO 0,00 h 54 W/m 4,8 km/h (1 Bft)
22.06.2010 20:00 14,6 C 68 % 1021,3 hPa 0,0 l/m O 0,00 h 28 W/m 1,9 km/h (1 Bft)
22.06.2010 21:00 12,8 C 82 % 1021,4 hPa 0,0 l/m N 0,00 h 7 W/m 0,9 km/h (0 Bft)
22.06.2010 22:00 10,6 C 88 % 1021,7 hPa 0,0 l/m N 0,00 h 0 W/m 0,5 km/h (0 Bft)
22.06.2010 23:00 9,5 C 90 % 1021,7 hPa 0,0 l/m N 0,00 h 0 W/m 0,7 km/h (0 Bft)
23.06.2010 00:00 9,2 C 90 % 1021,4 hPa 0,0 l/m N-NW 0,00 h 0 W/m 2,0 km/h (1 Bft)
23.06.2010 01:00 8,6 C 91 % 1021,2 hPa 0,0 l/m N 0,00 h 0 W/m 1,5 km/h (1 Bft)
23.06.2010 02:00 8,1 C 92 % 1021,0 hPa 0,0 l/m N-NW 0,00 h 0 W/m 2,9 km/h (1 Bft)
23.06.2010 03:00 7,9 C 93 % 1020,8 hPa 0,0 l/m N-NW 0,00 h 0 W/m 4,4 km/h (1 Bft)
23.06.2010 04:00 7,8 C 94 % 1020,5 hPa 0,0 l/m N-NW 0,00 h 0 W/m 4,1 km/h (1 Bft)
23.06.2010 05:00 7,6 C 94 % 1020,7 hPa 0,0 l/m N-NW 0,00 h 10 W/m 4,8 km/h (1 Bft)
23.06.2010 06:00 7,6 C 95 % 1020,7 hPa 0,0 l/m N-NW 0,50 h 89 W/m 4,9 km/h (1 Bft)
23.06.2010 07:00 9,9 C 94 % 1020,7 hPa 0,0 l/m N-NW 1,00 h 268 W/m 7,5 km/h (2 Bft)
23.06.2010 08:00 13,3 C 80 % 1020,6 hPa 0,0 l/m O-NO 1,00 h 438 W/m 9,1 km/h (2 Bft)
23.06.2010 09:00 15,6 C 71 % 1020,4 hPa 0,0 l/m O 1,00 h 580 W/m 14,8 km/h (3 Bft)
23.06.2010 10:00 17,4 C 59 % 1020,2 hPa 0,0 l/m O 1,00 h 737 W/m 19,4 km/h (3 Bft)
23.06.2010 11:00 18,5 C 50 % 1019,9 hPa 0,0 l/m O 1,00 h 871 W/m 23,3 km/h (4 Bft)
23.06.2010 12:00 19,3 C 46 % 1019,8 hPa 0,0 l/m O-SO 0,67 h 743 W/m 20,2 km/h (4 Bft)
23.06.2010 13:00 19,7 C 47 % 1019,7 hPa 0,0 l/m O-NO 0,58 h 729 W/m 18,9 km/h (3 Bft)
23.06.2010 14:00 20,1 C 44 % 1019,2 hPa 0,0 l/m O-NO 0,50 h 700 W/m 20,4 km/h (4 Bft)
23.06.2010 15:00 20,1 C 45 % 1019,0 hPa 0,0 l/m NO 0,42 h 586 W/m 18,1 km/h (3 Bft)
23.06.2010 16:00 20,2 C 43 % 1018,8 hPa 0,0 l/m O 0,67 h 580 W/m 16,1 km/h (3 Bft)
23.06.2010 17:00 20,2 C 45 % 1018,6 hPa 0,0 l/m NO 0,58 h 397 W/m 15,7 km/h (3 Bft)
23.06.2010 18:00 20,2 C 44 % 1018,4 hPa 0,0 l/m O-NO 1,00 h 399 W/m 14,9 km/h (3 Bft)
23.06.2010 19:00 19,4 C 47 % 1018,4 hPa 0,0 l/m NO 0,17 h 81 W/m 14,5 km/h (3 Bft)
23.06.2010 20:00 17,9 C 53 % 1018,5 hPa 0,0 l/m O-NO 0,00 h 27 W/m 8,7 km/h (2 Bft)
23.06.2010 21:00 14,9 C 69 % 1018,7 hPa 0,0 l/m N 0,00 h 8 W/m 2,3 km/h (1 Bft)
23.06.2010 22:00 12,7 C 78 % 1018,9 hPa 0,0 l/m N 0,00 h 0 W/m 1,6 km/h (1 Bft)
23.06.2010 23:00 11,7 C 82 % 1018,9 hPa 0,0 l/m N 0,00 h 0 W/m 1,6 km/h (1 Bft)
24.06.2010 00:00 11,3 C 82 % 1018,7 hPa 0,0 l/m N 0,00 h 0 W/m 1,2 km/h (1 Bft)
24.06.2010 01:00 10,7 C 84 % 1018,4 hPa 0,0 l/m N 0,00 h 0 W/m 1,3 km/h (1 Bft)
24.06.2010 02:00 10,1 C 86 % 1018,2 hPa 0,0 l/m N-NW 0,00 h 0 W/m 5,9 km/h (2 Bft)
24.06.2010 03:00 9,9 C 87 % 1017,8 hPa 0,0 l/m N-NW 0,00 h 0 W/m 4,9 km/h (1 Bft)
24.06.2010 04:00 9,6 C 88 % 1017,5 hPa 0,0 l/m N-NW 0,00 h 0 W/m 4,3 km/h (1 Bft)
24.06.2010 05:00 9,2 C 89 % 1017,4 hPa 0,0 l/m N-NW 0,00 h 11 W/m 4,0 km/h (1 Bft)
24.06.2010 06:00 9,3 C 91 % 1017,5 hPa 0,0 l/m N-NW 0,50 h 83 W/m 5,1 km/h (1 Bft)
24.06.2010 07:00 11,6 C 85 % 1017,7 hPa 0,0 l/m N-NW 1,00 h 259 W/m 6,5 km/h (2 Bft)
24.06.2010 08:00 14,4 C 76 % 1017,8 hPa 0,0 l/m N-NW 1,00 h 426 W/m 4,7 km/h (1 Bft)
24.06.2010 09:00 17,2 C 65 % 1017,7 hPa 0,0 l/m O-NO 1,00 h 582 W/m 8,6 km/h (2 Bft)
24.06.2010 10:00 19,2 C 51 % 1017,5 hPa 0,0 l/m NO 1,00 h 777 W/m 14,4 km/h (3 Bft)
24.06.2010 11:00 20,0 C 45 % 1017,4 hPa 0,0 l/m O 0,75 h 793 W/m 16,8 km/h (3 Bft)
24.06.2010 12:00 20,4 C 43 % 1017,2 hPa 0,0 l/m N-NO 0,75 h 882 W/m 15,2 km/h (3 Bft)
24.06.2010 13:00 21,0 C 43 % 1016,9 hPa 0,0 l/m NO 0,75 h 777 W/m 15,6 km/h (3 Bft)
24.06.2010 14:00 21,3 C 43 % 1016,6 hPa 0,0 l/m O-NO 0,50 h 646 W/m 13,0 km/h (3 Bft)
24.06.2010 15:00 21,9 C 41 % 1016,2 hPa 0,0 l/m O-NO 0,92 h 789 W/m 13,7 km/h (3 Bft)
24.06.2010 16:00 22,1 C 41 % 1016,0 hPa 0,0 l/m O-NO 0,58 h 545 W/m 12,8 km/h (3 Bft)
24.06.2010 17:00 22,1 C 42 % 1015,8 hPa 0,0 l/m NO 0,75 h 475 W/m 12,6 km/h (3 Bft)
24.06.2010 18:00 21,8 C 42 % 1015,6 hPa 0,0 l/m O 0,92 h 348 W/m 11,0 km/h (2 Bft)
24.06.2010 19:00 21,4 C 43 % 1015,7 hPa 0,0 l/m O-NO 0,17 h 84 W/m 9,8 km/h (2 Bft)
24.06.2010 20:00 20,0 C 50 % 1015,6 hPa 0,0 l/m O 0,00 h 27 W/m 4,7 km/h (1 Bft)
24.06.2010 21:00 16,0 C 70 % 1015,8 hPa 0,0 l/m N 0,00 h 8 W/m 1,2 km/h (1 Bft)
24.06.2010 22:00 14,3 C 75 % 1016,1 hPa 0,0 l/m N 0,00 h 0 W/m 0,7 km/h (0 Bft)
24.06.2010 23:00 13,0 C 82 % 1016,1 hPa 0,0 l/m N 0,00 h 0 W/m 0,0 km/h (0 Bft)
25.06.2010 00:00 12,1 C 86 % 1015,9 hPa 0,0 l/m N 0,00 h 0 W/m 0,0 km/h (0 Bft)
25.06.2010 01:00 11,4 C 88 % 1015,7 hPa 0,0 l/m N 0,00 h 0 W/m 0,1 km/h (0 Bft)
25.06.2010 02:00 10,7 C 90 % 1015,4 hPa 0,0 l/m N 0,00 h 0 W/m 0,0 km/h (0 Bft)
25.06.2010 03:00 10,0 C 92 % 1015,2 hPa 0,0 l/m N 0,00 h 0 W/m 0,0 km/h (0 Bft)
25.06.2010 04:00 9,5 C 93 % 1015,0 hPa 0,0 l/m N 0,00 h 0 W/m 0,0 km/h (0 Bft)
25.06.2010 05:00 9,0 C 94 % 1015,0 hPa 0,0 l/m N 0,00 h 11 W/m 0,0 km/h (0 Bft)
25.06.2010 06:00 9,8 C 93 % 1015,0 hPa 0,0 l/m N 0,50 h 79 W/m 0,0 km/h (0 Bft)
25.06.2010 07:00 12,7 C 87 % 1015,0 hPa 0,0 l/m N 1,00 h 245 W/m 0,0 km/h (0 Bft)
25.06.2010 08:00 15,7 C 74 % 1015,0 hPa 0,0 l/m N 1,00 h 420 W/m 0,1 km/h (0 Bft)
25.06.2010 09:00 18,2 C 65 % 1014,9 hPa 0,0 l/m S-SO 1,00 h 576 W/m 2,0 km/h (1 Bft)
25.06.2010 10:00 20,6 C 54 % 1014,8 hPa 0,0 l/m O-SO 1,00 h 725 W/m 6,0 km/h (2 Bft)
25.06.2010 11:00 21,9 C 48 % 1014,4 hPa 0,0 l/m SO 1,00 h 804 W/m 9,1 km/h (2 Bft)
25.06.2010 12:00 23,0 C 46 % 1014,1 hPa 0,0 l/m O-NO 0,83 h 728 W/m 10,5 km/h (2 Bft)
25.06.2010 13:00 23,4 C 44 % 1013,6 hPa 0,0 l/m NO 0,92 h 807 W/m 10,3 km/h (2 Bft)
25.06.2010 14:00 24,0 C 42 % 1013,4 hPa 0,0 l/m O-SO 0,75 h 741 W/m 13,0 km/h (3 Bft)
25.06.2010 15:00 24,7 C 41 % 1013,1 hPa 0,0 l/m O 0,92 h 750 W/m 11,0 km/h (2 Bft)
25.06.2010 16:00 24,7 C 42 % 1012,7 hPa 0,0 l/m N-NO 0,75 h 571 W/m 9,9 km/h (2 Bft)
25.06.2010 17:00 25,0 C 41 % 1012,4 hPa 0,0 l/m O-NO 1,00 h 541 W/m 10,9 km/h (2 Bft)
25.06.2010 18:00 24,7 C 40 % 1012,0 hPa 0,0 l/m N 1,00 h 364 W/m 8,2 km/h (2 Bft)
25.06.2010 19:00 24,0 C 42 % 1012,0 hPa 0,0 l/m N 0,17 h 81 W/m 8,2 km/h (2 Bft)
25.06.2010 20:00 21,5 C 58 % 1012,3 hPa 0,0 l/m N 0,00 h 26 W/m 3,1 km/h (1 Bft)
25.06.2010 21:00 18,7 C 66 % 1012,6 hPa 0,0 l/m N 0,00 h 6 W/m 2,1 km/h (1 Bft)
25.06.2010 22:00 16,7 C 74 % 1012,9 hPa 0,0 l/m N 0,00 h 0 W/m 0,4 km/h (0 Bft)
25.06.2010 23:00 15,3 C 79 % 1013,1 hPa 0,0 l/m N 0,00 h 0 W/m 0,8 km/h (0 Bft)
26.06.2010 00:00 14,8 C 82 % 1013,2 hPa 0,0 l/m N 0,00 h 0 W/m 0,9 km/h (0 Bft)
26.06.2010 01:00 14,4 C 84 % 1013,0 hPa 0,0 l/m N 0,00 h 0 W/m 2,9 km/h (1 Bft)
26.06.2010 02:00 14,4 C 84 % 1013,0 hPa 0,0 l/m N-NW 0,00 h 0 W/m 6,1 km/h (2 Bft)
26.06.2010 03:00 14,0 C 86 % 1012,8 hPa 0,0 l/m N-NW 0,00 h 0 W/m 6,1 km/h (2 Bft)
26.06.2010 04:00 13,6 C 89 % 1012,8 hPa 0,0 l/m N-NW 0,00 h 0 W/m 4,8 km/h (1 Bft)
26.06.2010 05:00 12,9 C 92 % 1012,9 hPa 0,0 l/m N-NW 0,00 h 12 W/m 3,3 km/h (1 Bft)
26.06.2010 06:00 13,3 C 92 % 1013,1 hPa 0,0 l/m N 0,25 h 70 W/m 1,7 km/h (1 Bft)
26.06.2010 07:00 15,4 C 85 % 1013,3 hPa 0,0 l/m N 1,00 h 212 W/m 0,7 km/h (0 Bft)
26.06.2010 08:00 17,5 C 76 % 1013,5 hPa 0,0 l/m N 1,00 h 386 W/m 1,7 km/h (1 Bft)
26.06.2010 09:00 19,9 C 69 % 1013,4 hPa 0,0 l/m N-NW 1,00 h 537 W/m 3,3 km/h (1 Bft)
26.06.2010 10:00 21,9 C 62 % 1013,1 hPa 0,0 l/m O-SO 1,00 h 689 W/m 4,8 km/h (1 Bft)
26.06.2010 11:00 23,5 C 54 % 1013,1 hPa 0,0 l/m O 1,00 h 805 W/m 10,3 km/h (2 Bft)
26.06.2010 12:00 24,7 C 48 % 1013,1 hPa 0,0 l/m O-NO 1,00 h 907 W/m 13,2 km/h (3 Bft)
26.06.2010 13:00 25,1 C 46 % 1013,1 hPa 0,0 l/m O-SO 0,75 h 747 W/m 13,2 km/h (3 Bft)
26.06.2010 14:00 25,7 C 43 % 1013,0 hPa 0,0 l/m O 0,75 h 731 W/m 13,2 km/h (3 Bft)
26.06.2010 15:00 25,5 C 44 % 1012,8 hPa 0,0 l/m NO 0,50 h 547 W/m 11,3 km/h (2 Bft)
26.06.2010 16:00 25,9 C 42 % 1012,5 hPa 0,0 l/m O 0,92 h 630 W/m 11,4 km/h (2 Bft)
26.06.2010 17:00 26,2 C 41 % 1012,4 hPa 0,0 l/m NO 1,00 h 524 W/m 12,5 km/h (3 Bft)
26.06.2010 18:00 25,8 C 42 % 1012,1 hPa 0,0 l/m O-NO 1,00 h 347 W/m 15,0 km/h (3 Bft)
26.06.2010 19:00 24,9 C 46 % 1012,3 hPa 0,0 l/m O-NO 0,17 h 91 W/m 12,2 km/h (2 Bft)
26.06.2010 20:00 23,2 C 52 % 1012,8 hPa 0,0 l/m NO 0,00 h 28 W/m 8,7 km/h (2 Bft)
26.06.2010 21:00 21,3 C 61 % 1013,4 hPa 0,0 l/m NO 0,00 h 8 W/m 6,8 km/h (2 Bft)
26.06.2010 22:00 20,0 C 67 % 1013,9 hPa 0,0 l/m NO 0,00 h 0 W/m 7,2 km/h (2 Bft)
26.06.2010 23:00 18,5 C 72 % 1014,3 hPa 0,0 l/m NO 0,00 h 0 W/m 4,1 km/h (1 Bft)
27.06.2010 00:00 16,5 C 82 % 1014,4 hPa 0,0 l/m N-NO 0,00 h 0 W/m 2,0 km/h (1 Bft)
27.06.2010 01:00 16,0 C 83 % 1014,5 hPa 0,0 l/m W-NW 0,00 h 0 W/m 3,3 km/h (1 Bft)
27.06.2010 02:00 15,5 C 85 % 1014,4 hPa 0,0 l/m W-NW 0,00 h 0 W/m 3,9 km/h (1 Bft)
27.06.2010 03:00 15,3 C 85 % 1014,4 hPa 0,0 l/m N 0,00 h 0 W/m 6,3 km/h (2 Bft)
27.06.2010 04:00 14,5 C 89 % 1014,4 hPa 0,0 l/m N 0,00 h 0 W/m 2,9 km/h (1 Bft)
27.06.2010 05:00 14,0 C 90 % 1014,6 hPa 0,0 l/m N 0,00 h 10 W/m 5,1 km/h (1 Bft)
27.06.2010 06:00 14,5 C 89 % 1015,0 hPa 0,0 l/m N-NW 0,50 h 77 W/m 5,2 km/h (1 Bft)
27.06.2010 07:00 16,3 C 82 % 1015,1 hPa 0,0 l/m NO 1,00 h 247 W/m 5,5 km/h (1 Bft)
27.06.2010 08:00 18,4 C 76 % 1015,3 hPa 0,0 l/m NO 1,00 h 412 W/m 5,2 km/h (1 Bft)
27.06.2010 09:00 20,6 C 71 % 1015,4 hPa 0,0 l/m N-NO 1,00 h 560 W/m 7,3 km/h (2 Bft)
27.06.2010 10:00 22,7 C 61 % 1015,4 hPa 0,0 l/m O-SO 1,00 h 708 W/m 9,8 km/h (2 Bft)
27.06.2010 11:00 24,3 C 54 % 1015,3 hPa 0,0 l/m O 1,00 h 820 W/m 14,6 km/h (3 Bft)
27.06.2010 12:00 25,5 C 47 % 1015,5 hPa 0,0 l/m NO 0,92 h 859 W/m 15,7 km/h (3 Bft)
27.06.2010 13:00 25,9 C 44 % 1015,4 hPa 0,0 l/m NO 0,83 h 831 W/m 13,8 km/h (3 Bft)
27.06.2010 14:00 26,4 C 40 % 1015,3 hPa 0,0 l/m O-SO 1,00 h 936 W/m 13,7 km/h (3 Bft)
27.06.2010 15:00 26,9 C 39 % 1015,2 hPa 0,0 l/m O-NO 1,00 h 792 W/m 12,8 km/h (3 Bft)
27.06.2010 16:00 27,1 C 37 % 1014,9 hPa 0,0 l/m O 1,00 h 673 W/m 14,1 km/h (3 Bft)
27.06.2010 17:00 27,1 C 36 % 1014,8 hPa 0,0 l/m O-SO 1,00 h 522 W/m 14,1 km/h (3 Bft)
27.06.2010 18:00 26,8 C 35 % 1014,7 hPa 0,0 l/m O-NO 1,00 h 365 W/m 11,5 km/h (2 Bft)
27.06.2010 19:00 26,0 C 38 % 1014,8 hPa 0,0 l/m N-NO 0,25 h 90 W/m 10,5 km/h (2 Bft)
27.06.2010 20:00 24,1 C 48 % 1014,9 hPa 0,0 l/m O-NO 0,00 h 28 W/m 5,6 km/h (1 Bft)
27.06.2010 21:00 20,4 C 65 % 1015,2 hPa 0,0 l/m N 0,00 h 8 W/m 1,3 km/h (1 Bft)
27.06.2010 22:00 18,7 C 71 % 1015,4 hPa 0,0 l/m N 0,00 h 0 W/m 1,6 km/h (1 Bft)
27.06.2010 23:00 17,6 C 76 % 1015,5 hPa 0,0 l/m N 0,00 h 0 W/m 2,3 km/h (1 Bft)
Min-Datum _ 23.06.10 27.06.10 25.06.10 - - - - 21.06.10
_ Min-Zeit 06:05 17:45 18:30 - - - - 00:00
Minimum _ 7,3 C 34 % 1011,9 hPa - - - - 0,0 km/h (0 Bft)
Max-Datum _ 27.06.10 21.06.10 22.06.10 21.06.10 - 21.06.10 22.06.10 23.06.10
_ Max-Zeit 15:15 04:00 22:15 20:30 - 12:25 14:25 14:20
Maximum _ 27,4 C 100 % 1021,8 hPa 1,2 l/m - 0,08 h 1164 W/m 27,4 km/h
O-NO (4 Bft)
Durchschnitt _ 16,1 C 70 % 1016,6 hPa #1,6 l/m O-NO #60:20 h 375 W/m 7,4 km/h (2 Bft)